No particular awareness of the weather is required.    There are no Weather-warnings


Meteo18 Weather Cam more information Meteo18 Weather Cam


Thunder radar more information blitzortung!


Rain radar more information rain snow radar


Visit our other weather sites:

Template documentation
and downloads

And another site



Weather Underground History page Text

Daily Summary for February 20, 2016 Units:  Metric    English   Both
« Previous Day
Next Day »
Daily Weekly Monthly Yearly Custom
  High: Low: Average:
Temperature: 10.4 °C 1.8 °C 7.2 °C
Dew Point: 9.7 °C 0.9 °C 6.6 °C
Humidity: 98 % 93 % 96 %
Wind Speed: 19.3 km/h 0.0 km/h 6.3 km/h
Wind Gust: 30.6 km/h - -
Wind:- - SW
Pressure: 1024.9 hPa 1021.6 hPa -
Precipitation: 7.9 mm    
Historical Graphs
 
 
Tabular Data for February 20, 2016
Time Temperature Dew Point Pressure Wind Wind Speed Wind Gust Humidity Rainfall Rate (Hourly)
00:02 2.8 °C 2.2 °C 1023.6 hPa SW 3.2 km/h 4.8 km/h 96 % 0.0 mm
00:12 3.0 °C 2.3 °C 1023.6 hPa SW 4.8 km/h 6.4 km/h 95 % 0.0 mm
00:17 3.1 °C 2.2 °C 1023.6 hPa WSW 1.6 km/h 6.4 km/h 94 % 0.0 mm
00:22 2.9 °C 2.0 °C 1023.6 hPa SSW 1.6 km/h 6.4 km/h 94 % 0.0 mm
00:27 2.8 °C 1.9 °C 1023.6 hPa South 1.6 km/h 6.4 km/h 94 % 0.0 mm
00:32 2.7 °C 1.8 °C 1023.6 hPa SW 3.2 km/h 4.8 km/h 94 % 0.0 mm
00:37 2.6 °C 1.7 °C 1023.6 hPa SW 3.2 km/h 4.8 km/h 94 % 0.0 mm
00:42 2.4 °C 1.5 °C 1023.9 hPa SW 3.2 km/h 3.2 km/h 94 % 0.0 mm
00:47 2.3 °C 1.4 °C 1023.6 hPa Calm   3.2 km/h 94 % 0.0 mm
00:52 2.2 °C 1.5 °C 1023.6 hPa South 1.6 km/h 3.2 km/h 95 % 0.0 mm
00:57 2.1 °C 1.2 °C 1023.6 hPa SW 1.6 km/h 3.2 km/h 94 % 0.0 mm
01:02 1.8 °C 0.9 °C 1023.6 hPa SW 1.6 km/h 3.2 km/h 94 % 0.0 mm
01:07 1.8 °C 1.1 °C 1023.9 hPa SW 1.6 km/h 3.2 km/h 95 % 0.0 mm
01:12 1.9 °C 1.3 °C 1023.6 hPa SW 1.6 km/h 4.8 km/h 96 % 0.0 mm
01:17 1.9 °C 1.2 °C 1023.6 hPa SW 1.6 km/h 4.8 km/h 95 % 0.0 mm
01:22 1.9 °C 1.2 °C 1023.6 hPa Calm   4.8 km/h 95 % 0.0 mm
01:27 1.8 °C 1.1 °C 1023.6 hPa WSW 1.6 km/h 3.2 km/h 95 % 0.0 mm
01:37 1.9 °C 1.3 °C 1023.6 hPa Calm   3.2 km/h 96 % 0.0 mm
01:52 2.3 °C 1.7 °C 1023.9 hPa SSW 1.6 km/h 3.2 km/h 96 % 0.0 mm
01:57 2.4 °C 1.8 °C 1023.6 hPa WSW 3.2 km/h 4.8 km/h 96 % 0.0 mm
02:02 2.5 °C 1.9 °C 1023.6 hPa Calm   6.4 km/h 96 % 0.0 mm
02:07 2.4 °C 1.7 °C 1023.6 hPa SE 1.6 km/h 6.4 km/h 95 % 0.0 mm
02:12 2.4 °C 1.7 °C 1023.6 hPa Calm   6.4 km/h 95 % 0.0 mm
02:17 2.4 °C 1.7 °C 1023.9 hPa SSW 1.6 km/h 4.8 km/h 95 % 0.0 mm
02:22 2.4 °C 1.7 °C 1023.6 hPa SW 3.2 km/h 3.2 km/h 95 % 0.0 mm
02:27 2.4 °C 1.7 °C 1023.6 hPa WSW 1.6 km/h 3.2 km/h 95 % 0.0 mm
02:32 2.4 °C 1.8 °C 1023.2 hPa Calm   3.2 km/h 96 % 0.0 mm
02:37 2.6 °C 2.0 °C 1023.6 hPa Calm   3.2 km/h 96 % 0.0 mm
02:47 2.8 °C 2.2 °C 1023.2 hPa SW 3.2 km/h 3.2 km/h 96 % 0.0 mm
02:52 2.9 °C 2.3 °C 1023.2 hPa Calm   3.2 km/h 96 % 0.0 mm
02:57 2.9 °C 2.2 °C 1023.6 hPa Calm   3.2 km/h 95 % 0.0 mm
03:02 2.9 °C 2.2 °C 1023.6 hPa Calm   3.2 km/h 95 % 0.0 mm
03:07 3.1 °C 2.4 °C 1023.6 hPa Calm   3.2 km/h 95 % 0.0 mm
03:12 3.1 °C 2.4 °C 1023.2 hPa West 1.6 km/h 3.2 km/h 95 % 0.0 mm
03:22 3.3 °C 2.6 °C 1022.9 hPa Calm   3.2 km/h 95 % 0.0 mm
03:27 3.4 °C 2.7 °C 1022.9 hPa SW 1.6 km/h 3.2 km/h 95 % 0.0 mm
03:32 3.5 °C 2.8 °C 1022.6 hPa Calm   3.2 km/h 95 % 0.0 mm
03:37 3.6 °C 2.9 °C 1022.6 hPa WSW 6.4 km/h 6.4 km/h 95 % 0.0 mm
03:42 3.8 °C 2.9 °C 1022.2 hPa WSW 3.2 km/h 9.7 km/h 94 % 0.0 mm
03:47 3.9 °C 3.0 °C 1022.2 hPa South 9.7 km/h 9.7 km/h 94 % 0.0 mm
03:52 4.1 °C 3.1 °C 1022.2 hPa WSW 1.6 km/h 12.9 km/h 93 % 0.0 mm
03:57 4.2 °C 3.2 °C 1022.6 hPa SW 6.4 km/h 12.9 km/h 93 % 0.0 mm
04:02 4.2 °C 3.2 °C 1022.6 hPa SSW 8.0 km/h 12.9 km/h 93 % 0.0 mm
04:07 4.3 °C 3.3 °C 1022.9 hPa SW 1.6 km/h 12.9 km/h 93 % 0.0 mm
04:12 4.4 °C 3.4 °C 1022.6 hPa SW 3.2 km/h 12.9 km/h 93 % 0.0 mm
04:17 4.4 °C 3.4 °C 1022.9 hPa Calm   9.7 km/h 93 % 0.0 mm
04:22 4.4 °C 3.4 °C 1022.6 hPa SW 6.4 km/h 8.0 km/h 93 % 0.0 mm
04:27 4.3 °C 3.3 °C 1022.9 hPa SW 4.8 km/h 8.0 km/h 93 % 0.0 mm
04:37 4.3 °C 3.4 °C 1022.6 hPa WSW 1.6 km/h 8.0 km/h 94 % 0.0 mm
04:42 4.3 °C 3.4 °C 1022.6 hPa SW 6.4 km/h 6.4 km/h 94 % 0.0 mm
04:47 4.4 °C 3.5 °C 1022.2 hPa SW 4.8 km/h 8.0 km/h 94 % 0.0 mm
04:52 4.4 °C 3.5 °C 1022.2 hPa SW 4.8 km/h 8.0 km/h 94 % 0.0 mm
04:57 4.4 °C 3.5 °C 1022.6 hPa SW 4.8 km/h 8.0 km/h 94 % 0.0 mm
05:02 4.4 °C 3.5 °C 1022.6 hPa West 1.6 km/h 8.0 km/h 94 % 0.0 mm
05:12 4.6 °C 3.7 °C 1022.2 hPa ESE 1.6 km/h 8.0 km/h 94 % 0.0 mm
05:17 4.6 °C 3.7 °C 1022.2 hPa SW 4.8 km/h 9.7 km/h 94 % 0.3 mm
05:22 4.6 °C 3.7 °C 1022.2 hPa SSE 4.8 km/h 9.7 km/h 94 % 0.3 mm
05:27 4.7 °C 3.8 °C 1022.2 hPa WSW 6.4 km/h 9.7 km/h 94 % 0.3 mm
05:32 4.8 °C 3.9 °C 1022.2 hPa WSW 1.6 km/h 9.7 km/h 94 % 0.3 mm
05:37 4.8 °C 3.9 °C 1022.2 hPa SW 4.8 km/h 9.7 km/h 94 % 0.3 mm
05:42 4.8 °C 3.9 °C 1022.2 hPa SW 3.2 km/h 9.7 km/h 94 % 0.3 mm
05:47 4.9 °C 4.0 °C 1022.2 hPa SW 3.2 km/h 8.0 km/h 94 % 0.3 mm
05:52 4.9 °C 4.0 °C 1022.2 hPa SW 3.2 km/h 8.0 km/h 94 % 0.3 mm
05:57 4.9 °C 4.0 °C 1022.2 hPa South 4.8 km/h 6.4 km/h 94 % 0.3 mm
06:02 4.9 °C 4.2 °C 1022.2 hPa WSW 3.2 km/h 6.4 km/h 95 % 0.3 mm
06:12 4.9 °C 4.2 °C 1022.2 hPa Calm   6.4 km/h 95 % 0.3 mm
06:17 4.9 °C 4.3 °C 1022.2 hPa Calm   8.0 km/h 96 % 0.0 mm
06:27 4.9 °C 4.3 °C 1022.2 hPa SE 3.2 km/h 9.7 km/h 96 % 0.0 mm
06:32 4.9 °C 4.3 °C 1022.2 hPa WSW 3.2 km/h 9.7 km/h 96 % 0.0 mm
06:37 5.0 °C 4.4 °C 1022.2 hPa SSW 4.8 km/h 8.0 km/h 96 % 0.0 mm
06:42 5.0 °C 4.4 °C 1022.2 hPa SSW 3.2 km/h 8.0 km/h 96 % 0.0 mm
06:47 5.1 °C 4.5 °C 1022.2 hPa SW 6.4 km/h 8.0 km/h 96 % 0.0 mm
06:52 5.1 °C 4.5 °C 1022.2 hPa SW 9.7 km/h 9.7 km/h 96 % 0.0 mm
06:57 5.2 °C 4.6 °C 1021.9 hPa SW 8.0 km/h 11.3 km/h 96 % 0.3 mm
07:02 5.3 °C 4.7 °C 1021.9 hPa SSE 6.4 km/h 11.3 km/h 96 % 0.3 mm
07:07 5.3 °C 4.9 °C 1021.9 hPa SW 4.8 km/h 12.9 km/h 97 % 0.3 mm
07:12 5.4 °C 5.0 °C 1022.2 hPa SSW 3.2 km/h 12.9 km/h 97 % 0.3 mm
07:17 5.4 °C 5.0 °C 1021.9 hPa WSW 1.6 km/h 17.7 km/h 97 % 0.5 mm
07:22 5.4 °C 5.0 °C 1021.9 hPa SSW 8.0 km/h 17.7 km/h 97 % 0.5 mm
07:27 5.3 °C 4.9 °C 1021.9 hPa SSW 4.8 km/h 9.7 km/h 97 % 0.5 mm
07:32 5.3 °C 4.9 °C 1021.9 hPa SW 8.0 km/h 9.7 km/h 97 % 0.5 mm
07:37 5.3 °C 4.9 °C 1021.9 hPa SW 4.8 km/h 11.3 km/h 97 % 0.5 mm
07:42 5.4 °C 5.0 °C 1021.9 hPa SW 9.7 km/h 11.3 km/h 97 % 0.5 mm
07:52 5.6 °C 5.2 °C 1021.9 hPa WSW 8.0 km/h 12.9 km/h 97 % 0.8 mm
07:57 5.6 °C 5.2 °C 1021.9 hPa WSW 8.0 km/h 16.1 km/h 97 % 0.5 mm
08:02 5.6 °C 5.2 °C 1021.9 hPa SW 6.4 km/h 16.1 km/h 97 % 0.5 mm
08:07 5.7 °C 5.3 °C 1021.6 hPa WSW 8.0 km/h 20.9 km/h 97 % 0.8 mm
08:12 5.7 °C 5.3 °C 1021.9 hPa SW 3.2 km/h 20.9 km/h 97 % 0.8 mm
08:27 5.9 °C 5.6 °C 1021.9 hPa SW 6.4 km/h 17.7 km/h 98 % 1.0 mm
08:32 6.0 °C 5.7 °C 1022.2 hPa WSW 16.1 km/h 17.7 km/h 98 % 1.0 mm
08:42 6.1 °C 5.7 °C 1022.2 hPa SW 6.4 km/h 17.7 km/h 97 % 1.0 mm
08:47 6.2 °C 5.8 °C 1022.2 hPa WSW 4.8 km/h 17.7 km/h 97 % 1.0 mm
08:52 6.2 °C 5.8 °C 1022.2 hPa WSW 6.4 km/h 17.7 km/h 97 % 1.0 mm
08:57 6.2 °C 5.8 °C 1022.6 hPa SW 6.4 km/h 17.7 km/h 97 % 1.3 mm
09:02 6.3 °C 5.9 °C 1022.6 hPa SSW 4.8 km/h 17.7 km/h 97 % 1.3 mm
09:07 6.3 °C 5.9 °C 1022.6 hPa SW 4.8 km/h 17.7 km/h 97 % 1.3 mm
09:12 6.4 °C 6.0 °C 1022.6 hPa SW 1.6 km/h 14.5 km/h 97 % 1.3 mm
09:17 6.4 °C 6.0 °C 1022.6 hPa SW 8.0 km/h 12.9 km/h 97 % 1.3 mm
09:22 6.5 °C 6.1 °C 1022.6 hPa SW 4.8 km/h 9.7 km/h 97 % 1.3 mm
09:32 6.6 °C 6.2 °C 1022.6 hPa WSW 3.2 km/h 9.7 km/h 97 % 1.5 mm
09:37 6.7 °C 6.3 °C 1022.6 hPa SW 6.4 km/h 16.1 km/h 97 % 1.3 mm
09:42 6.7 °C 6.3 °C 1022.9 hPa WSW 4.8 km/h 16.1 km/h 97 % 1.3 mm
09:47 6.7 °C 6.4 °C 1022.9 hPa SW 6.4 km/h 16.1 km/h 98 % 1.3 mm
09:52 6.8 °C 6.5 °C 1022.9 hPa SSE 4.8 km/h 14.5 km/h 98 % 1.3 mm
09:57 6.9 °C 6.6 °C 1022.9 hPa WSW 4.8 km/h 14.5 km/h 98 % 1.3 mm
10:02 7.0 °C 6.7 °C 1022.9 hPa SW 11.3 km/h 14.5 km/h 98 % 1.3 mm
10:12 7.2 °C 6.9 °C 1023.2 hPa SW 8.0 km/h 14.5 km/h 98 % 1.0 mm
10:17 7.3 °C 7.0 °C 1023.2 hPa SW 3.2 km/h 17.7 km/h 98 % 1.0 mm
10:22 7.4 °C 7.1 °C 1023.2 hPa WSW 9.7 km/h 19.3 km/h 98 % 1.0 mm
10:27 7.4 °C 7.1 °C 1022.9 hPa SW 16.1 km/h 19.3 km/h 98 % 1.0 mm
10:32 7.5 °C 7.1 °C 1022.9 hPa SW 8.0 km/h 19.3 km/h 97 % 0.8 mm
10:37 7.6 °C 7.2 °C 1022.9 hPa SW 8.0 km/h 19.3 km/h 97 % 0.8 mm
10:42 7.6 °C 7.2 °C 1023.2 hPa WSW 6.4 km/h 19.3 km/h 97 % 0.5 mm
10:47 7.6 °C 7.2 °C 1022.9 hPa SW 11.3 km/h 19.3 km/h 97 % 0.5 mm
10:52 7.7 °C 7.3 °C 1022.9 hPa SW 12.9 km/h 22.5 km/h 97 % 0.5 mm
10:57 7.7 °C 7.3 °C 1023.2 hPa SSW 9.7 km/h 22.5 km/h 97 % 0.5 mm
11:07 7.8 °C 7.4 °C 1022.9 hPa SSW 11.3 km/h 25.7 km/h 97 % 0.5 mm
11:12 7.8 °C 7.4 °C 1023.2 hPa WSW 11.3 km/h 25.7 km/h 97 % 0.5 mm
11:17 7.9 °C 7.5 °C 1022.9 hPa SW 14.5 km/h 25.7 km/h 97 % 0.5 mm
11:22 8.0 °C 7.6 °C 1022.9 hPa SW 6.4 km/h 22.5 km/h 97 % 0.5 mm
11:27 8.1 °C 7.7 °C 1023.2 hPa WNW 1.6 km/h 20.9 km/h 97 % 0.5 mm
11:32 8.1 °C 7.7 °C 1022.9 hPa WSW 11.3 km/h 20.9 km/h 97 % 0.5 mm
11:37 8.1 °C 7.7 °C 1022.9 hPa SW 6.4 km/h 22.5 km/h 97 % 0.5 mm
11:42 8.1 °C 7.7 °C 1022.9 hPa WSW 8.0 km/h 22.5 km/h 97 % 0.5 mm
11:47 8.2 °C 7.8 °C 1022.6 hPa SW 11.3 km/h 19.3 km/h 97 % 0.8 mm
11:52 8.2 °C 7.8 °C 1022.6 hPa SW 12.9 km/h 20.9 km/h 97 % 0.5 mm
11:57 8.2 °C 7.8 °C 1022.6 hPa WSW 6.4 km/h 20.9 km/h 97 % 0.5 mm
12:02 8.3 °C 7.9 °C 1022.9 hPa SW 3.2 km/h 20.9 km/h 97 % 0.8 mm
12:07 8.3 °C 7.9 °C 1023.2 hPa SE 11.3 km/h 22.5 km/h 97 % 0.8 mm
12:12 8.3 °C 7.9 °C 1023.2 hPa WSW 8.0 km/h 22.5 km/h 97 % 0.8 mm
12:17 8.4 °C 8.0 °C 1023.2 hPa WSW 11.3 km/h 22.5 km/h 97 % 0.8 mm
12:22 8.4 °C 8.0 °C 1023.2 hPa SW 6.4 km/h 22.5 km/h 97 % 0.8 mm
12:27 8.4 °C 8.0 °C 1023.2 hPa WSW 8.0 km/h 22.5 km/h 97 % 0.8 mm
12:32 8.5 °C 8.1 °C 1022.9 hPa West 9.7 km/h 22.5 km/h 97 % 0.8 mm
12:42 8.4 °C 8.0 °C 1022.9 hPa WSW 8.0 km/h 22.5 km/h 97 % 0.8 mm
12:47 8.4 °C 8.0 °C 1022.9 hPa WSW 6.4 km/h 19.3 km/h 97 % 0.5 mm
12:52 8.5 °C 8.1 °C 1022.9 hPa SW 12.9 km/h 24.1 km/h 97 % 0.8 mm
12:57 8.5 °C 8.1 °C 1022.9 hPa WSW 12.9 km/h 24.1 km/h 97 % 0.8 mm
13:02 8.5 °C 8.1 °C 1022.9 hPa SW 9.7 km/h 24.1 km/h 97 % 0.5 mm
13:07 8.5 °C 8.1 °C 1022.9 hPa WSW 11.3 km/h 22.5 km/h 97 % 0.5 mm
13:12 8.6 °C 8.2 °C 1022.9 hPa WSW 8.0 km/h 22.5 km/h 97 % 0.8 mm
13:17 8.6 °C 8.2 °C 1022.9 hPa WSW 6.4 km/h 22.5 km/h 97 % 0.5 mm
13:22 8.7 °C 8.3 °C 1022.9 hPa SSW 6.4 km/h 22.5 km/h 97 % 0.8 mm
13:27 8.7 °C 8.3 °C 1022.9 hPa SW 8.0 km/h 17.7 km/h 97 % 0.8 mm
13:32 8.7 °C 8.3 °C 1023.2 hPa SW 3.2 km/h 17.7 km/h 97 % 0.5 mm
13:37 8.8 °C 8.3 °C 1022.9 hPa SW 4.8 km/h 20.9 km/h 97 % 0.5 mm
13:42 8.8 °C 8.3 °C 1022.9 hPa SSE 3.2 km/h 20.9 km/h 97 % 0.5 mm
13:52 8.9 °C 8.4 °C 1022.9 hPa SSW 9.7 km/h 17.7 km/h 97 % 0.5 mm
13:57 8.9 °C 8.4 °C 1022.9 hPa SW 4.8 km/h 17.7 km/h 97 % 0.5 mm
14:02 8.9 °C 8.4 °C 1022.9 hPa SW 8.0 km/h 17.7 km/h 97 % 0.5 mm
14:07 9.0 °C 8.5 °C 1022.9 hPa SW 6.4 km/h 22.5 km/h 97 % 0.5 mm
14:12 9.1 °C 8.6 °C 1022.9 hPa WSW 6.4 km/h 22.5 km/h 97 % 0.5 mm
14:17 9.1 °C 8.6 °C 1022.9 hPa WSW 8.0 km/h 22.5 km/h 97 % 0.5 mm
14:22 9.1 °C 8.6 °C 1022.6 hPa SW 8.0 km/h 19.3 km/h 97 % 0.5 mm
14:27 9.1 °C 8.6 °C 1022.9 hPa SW 14.5 km/h 19.3 km/h 97 % 0.5 mm
14:32 9.1 °C 8.5 °C 1022.9 hPa WSW 6.4 km/h 19.3 km/h 96 % 0.5 mm
14:37 9.1 °C 8.6 °C 1022.9 hPa WSW 3.2 km/h 19.3 km/h 97 % 0.5 mm
14:47 9.1 °C 8.6 °C 1022.6 hPa WSW 3.2 km/h 19.3 km/h 97 % 0.5 mm
14:57 9.1 °C 8.6 °C 1022.6 hPa SW 6.4 km/h 19.3 km/h 97 % 0.5 mm
15:07 9.2 °C 8.7 °C 1022.9 hPa WSW 16.1 km/h 16.1 km/h 97 % 0.5 mm
15:12 9.2 °C 8.7 °C 1022.9 hPa SW 6.4 km/h 20.9 km/h 97 % 0.3 mm
15:17 9.2 °C 8.7 °C 1022.9 hPa SW 6.4 km/h 20.9 km/h 97 % 0.3 mm
15:22 9.2 °C 8.7 °C 1022.9 hPa West 1.6 km/h 20.9 km/h 97 % 0.3 mm
15:27 9.2 °C 8.7 °C 1022.9 hPa WSW 14.5 km/h 17.7 km/h 97 % 0.5 mm
15:32 9.2 °C 8.7 °C 1022.9 hPa West 4.8 km/h 17.7 km/h 97 % 0.5 mm
15:37 9.2 °C 8.7 °C 1022.9 hPa SW 8.0 km/h 19.3 km/h 97 % 0.5 mm
15:42 9.2 °C 8.7 °C 1023.2 hPa West 3.2 km/h 19.3 km/h 97 % 0.5 mm
15:47 9.2 °C 8.7 °C 1023.2 hPa SW 4.8 km/h 16.1 km/h 97 % 0.3 mm
15:52 9.2 °C 8.7 °C 1022.9 hPa WSW 12.9 km/h 16.1 km/h 97 % 0.3 mm
15:57 9.2 °C 8.7 °C 1022.9 hPa SW 4.8 km/h 16.1 km/h 97 % 0.5 mm
16:02 9.2 °C 8.7 °C 1023.2 hPa South 4.8 km/h 16.1 km/h 97 % 0.5 mm
16:07 9.2 °C 8.7 °C 1023.2 hPa WSW 12.9 km/h 19.3 km/h 97 % 0.5 mm
16:12 9.3 °C 8.8 °C 1023.2 hPa WSW 4.8 km/h 19.3 km/h 97 % 0.5 mm
16:17 9.3 °C 8.8 °C 1023.2 hPa WSW 12.9 km/h 19.3 km/h 97 % 0.5 mm
16:22 9.3 °C 8.8 °C 1023.2 hPa SW 6.4 km/h 19.3 km/h 97 % 0.3 mm
16:27 9.3 °C 8.8 °C 1023.2 hPa SSW 3.2 km/h 16.1 km/h 97 % 0.3 mm
16:32 9.3 °C 8.8 °C 1023.2 hPa SW 4.8 km/h 16.1 km/h 97 % 0.3 mm
16:37 9.3 °C 8.8 °C 1023.6 hPa SW 4.8 km/h 16.1 km/h 97 % 0.3 mm
16:47 9.3 °C 8.8 °C 1023.2 hPa SW 4.8 km/h 20.9 km/h 97 % 0.5 mm
16:52 9.3 °C 8.8 °C 1023.2 hPa WSW 4.8 km/h 20.9 km/h 97 % 0.5 mm
16:57 9.3 °C 8.8 °C 1022.9 hPa WSW 8.0 km/h 20.9 km/h 97 % 0.3 mm
17:02 9.3 °C 8.8 °C 1022.9 hPa SE 6.4 km/h 20.9 km/h 97 % 0.3 mm
17:07 9.3 °C 8.8 °C 1023.2 hPa WSW 4.8 km/h 17.7 km/h 97 % 0.3 mm
17:12 9.3 °C 8.8 °C 1023.2 hPa SSW 6.4 km/h 14.5 km/h 97 % 0.3 mm
17:17 9.4 °C 8.9 °C 1023.6 hPa SW 11.3 km/h 14.5 km/h 97 % 0.3 mm
17:27 9.4 °C 8.9 °C 1023.2 hPa WSW 6.4 km/h 17.7 km/h 97 % 0.5 mm
17:32 9.4 °C 8.9 °C 1023.2 hPa WSW 6.4 km/h 17.7 km/h 97 % 0.5 mm
17:37 9.4 °C 8.9 °C 1023.2 hPa SW 8.0 km/h 20.9 km/h 97 % 0.5 mm
17:42 9.4 °C 8.9 °C 1023.2 hPa WSW 8.0 km/h 20.9 km/h 97 % 0.3 mm
17:47 9.5 °C 9.0 °C 1023.2 hPa WSW 3.2 km/h 16.1 km/h 97 % 0.3 mm
17:52 9.5 °C 9.0 °C 1023.6 hPa WSW 12.9 km/h 16.1 km/h 97 % 0.3 mm
17:57 9.5 °C 9.0 °C 1023.2 hPa SSW 6.4 km/h 16.1 km/h 97 % 0.3 mm
18:07 9.5 °C 9.0 °C 1023.6 hPa SSW 3.2 km/h 16.1 km/h 97 % 0.3 mm
18:12 9.6 °C 9.1 °C 1023.6 hPa SW 3.2 km/h 16.1 km/h 97 % 0.3 mm
18:17 9.6 °C 9.1 °C 1023.9 hPa SW 8.0 km/h 16.1 km/h 97 % 0.3 mm
18:32 9.7 °C 9.2 °C 1023.9 hPa SW 4.8 km/h 14.5 km/h 97 % 0.3 mm
18:37 9.7 °C 9.2 °C 1023.9 hPa West 4.8 km/h 14.5 km/h 97 % 0.3 mm
18:42 9.7 °C 9.2 °C 1023.9 hPa SW 6.4 km/h 19.3 km/h 97 % 0.3 mm
18:52 9.8 °C 9.3 °C 1023.6 hPa SSW 8.0 km/h 22.5 km/h 97 % 0.3 mm
19:02 9.8 °C 9.3 °C 1023.9 hPa WSW 6.4 km/h 22.5 km/h 97 % 0.3 mm
19:07 9.8 °C 9.3 °C 1023.9 hPa SSE 3.2 km/h 19.3 km/h 97 % 0.3 mm
19:17 9.9 °C 9.4 °C 1023.6 hPa SW 6.4 km/h 17.7 km/h 97 % 0.0 mm
19:22 9.9 °C 9.4 °C 1023.6 hPa SSW 19.3 km/h 19.3 km/h 97 % 0.0 mm
19:27 9.9 °C 9.4 °C 1023.6 hPa SSW 6.4 km/h 19.3 km/h 97 % 0.0 mm
19:37 10.0 °C 9.5 °C 1023.6 hPa SW 4.8 km/h 22.5 km/h 97 % 0.0 mm
19:42 10.0 °C 9.5 °C 1023.6 hPa SW 14.5 km/h 22.5 km/h 97 % 0.0 mm
19:47 10.1 °C 9.6 °C 1023.6 hPa WSW 12.9 km/h 25.7 km/h 97 % 0.0 mm
19:57 10.1 °C 9.5 °C 1023.6 hPa SW 14.5 km/h 19.3 km/h 96 % 0.0 mm
20:02 10.1 °C 9.5 °C 1023.6 hPa WSW 14.5 km/h 19.3 km/h 96 % 0.0 mm
20:07 10.2 °C 9.6 °C 1023.6 hPa SW 8.0 km/h 24.1 km/h 96 % 0.0 mm
20:12 10.2 °C 9.6 °C 1023.9 hPa SW 14.5 km/h 24.1 km/h 96 % 0.0 mm
20:17 10.2 °C 9.6 °C 1023.9 hPa SSW 6.4 km/h 20.9 km/h 96 % 0.0 mm
20:22 10.2 °C 9.6 °C 1023.9 hPa SW 8.0 km/h 20.9 km/h 96 % 0.0 mm
20:27 10.2 °C 9.6 °C 1023.9 hPa WSW 17.7 km/h 22.5 km/h 96 % 0.0 mm
20:32 10.3 °C 9.5 °C 1023.9 hPa SW 6.4 km/h 22.5 km/h 95 % 0.0 mm
20:37 10.3 °C 9.5 °C 1023.9 hPa WSW 4.8 km/h 30.6 km/h 95 % 0.0 mm
20:42 10.3 °C 9.5 °C 1023.9 hPa WSW 3.2 km/h 30.6 km/h 95 % 0.0 mm
20:47 10.3 °C 9.5 °C 1023.9 hPa West 4.8 km/h 25.7 km/h 95 % 0.0 mm
20:52 10.3 °C 9.5 °C 1024.3 hPa WSW 11.3 km/h 25.7 km/h 95 % 0.0 mm
20:57 10.3 °C 9.5 °C 1024.3 hPa SW 9.7 km/h 25.7 km/h 95 % 0.0 mm
21:02 10.4 °C 9.6 °C 1024.3 hPa SE 6.4 km/h 25.7 km/h 95 % 0.0 mm
21:07 10.3 °C 9.5 °C 1024.3 hPa WSW 8.0 km/h 19.3 km/h 95 % 0.0 mm
21:12 10.3 °C 9.5 °C 1024.3 hPa WSW 3.2 km/h 19.3 km/h 95 % 0.0 mm
21:17 10.4 °C 9.6 °C 1024.3 hPa SW 16.1 km/h 19.3 km/h 95 % 0.0 mm
21:22 10.4 °C 9.6 °C 1024.3 hPa WSW 3.2 km/h 19.3 km/h 95 % 0.0 mm
21:27 10.4 °C 9.6 °C 1024.3 hPa SW 9.7 km/h 22.5 km/h 95 % 0.0 mm
21:32 10.4 °C 9.6 °C 1024.3 hPa SW 6.4 km/h 22.5 km/h 95 % 0.0 mm
21:37 10.3 °C 9.5 °C 1024.3 hPa SW 6.4 km/h 22.5 km/h 95 % 0.0 mm
21:42 10.3 °C 9.5 °C 1024.3 hPa SSW 6.4 km/h 22.5 km/h 95 % 0.0 mm
21:47 10.3 °C 9.7 °C 1024.3 hPa SSW 11.3 km/h 25.7 km/h 96 % 0.0 mm
21:52 10.3 °C 9.7 °C 1024.3 hPa WSW 12.9 km/h 25.7 km/h 96 % 0.0 mm
21:57 10.3 °C 9.5 °C 1024.6 hPa SW 16.1 km/h 25.7 km/h 95 % 0.0 mm
22:02 10.3 °C 9.5 °C 1024.6 hPa WSW 8.0 km/h 25.7 km/h 95 % 0.0 mm
22:07 10.3 °C 9.5 °C 1024.6 hPa WSW 14.5 km/h 22.5 km/h 95 % 0.0 mm
22:12 10.3 °C 9.5 °C 1024.6 hPa SW 11.3 km/h 22.5 km/h 95 % 0.0 mm
22:17 10.3 °C 9.5 °C 1024.6 hPa SSW 9.7 km/h 19.3 km/h 95 % 0.0 mm
22:22 10.2 °C 9.4 °C 1024.6 hPa WSW 9.7 km/h 19.3 km/h 95 % 0.0 mm
22:27 10.2 °C 9.4 °C 1024.6 hPa SW 14.5 km/h 22.5 km/h 95 % 0.0 mm
22:32 10.2 °C 9.4 °C 1024.6 hPa SW 6.4 km/h 22.5 km/h 95 % 0.0 mm
22:37 10.2 °C 9.6 °C 1024.6 hPa SW 8.0 km/h 22.5 km/h 96 % 0.0 mm
22:42 10.1 °C 9.5 °C 1024.6 hPa SSW 6.4 km/h 22.5 km/h 96 % 0.0 mm
22:47 10.1 °C 9.5 °C 1024.6 hPa SW 9.7 km/h 17.7 km/h 96 % 0.0 mm
22:52 10.1 °C 9.5 °C 1024.6 hPa SW 8.0 km/h 19.3 km/h 96 % 0.0 mm
22:57 10.0 °C 9.4 °C 1024.9 hPa SW 3.2 km/h 19.3 km/h 96 % 0.0 mm
23:02 10.0 °C 9.4 °C 1024.9 hPa SE 3.2 km/h 19.3 km/h 96 % 0.0 mm
23:07 9.9 °C 9.3 °C 1024.6 hPa SW 17.7 km/h 19.3 km/h 96 % 0.0 mm
23:12 9.9 °C 9.3 °C 1024.6 hPa WSW 4.8 km/h 19.3 km/h 96 % 0.0 mm
23:17 9.9 °C 9.3 °C 1024.6 hPa SW 6.4 km/h 19.3 km/h 96 % 0.0 mm
23:22 9.9 °C 9.3 °C 1024.6 hPa SW 6.4 km/h 19.3 km/h 96 % 0.0 mm
23:27 9.8 °C 9.2 °C 1024.6 hPa SW 6.4 km/h 19.3 km/h 96 % 0.0 mm
23:32 9.8 °C 9.2 °C 1024.9 hPa SW 4.8 km/h 19.3 km/h 96 % 0.0 mm
23:37 9.8 °C 9.2 °C 1024.6 hPa SW 8.0 km/h 17.7 km/h 96 % 0.0 mm
23:42 9.8 °C 9.2 °C 1024.6 hPa SW 8.0 km/h 17.7 km/h 96 % 0.0 mm
23:47 9.8 °C 9.2 °C 1024.6 hPa SSW 8.0 km/h 17.7 km/h 96 % 0.3 mm
23:52 9.8 °C 9.2 °C 1024.6 hPa SSE 12.9 km/h 17.7 km/h 96 % 0.3 mm
23:57 9.7 °C 9.1 °C 1024.6 hPa SW 6.4 km/h 17.7 km/h 96 % 0.3 mm
Meteo18
Compliments of Weather Underground - 4 mb

Script developed by  Jim McMurry - jmcmurry@mwt.net Adapted for the template by  Wim van der Kuil - Leuven-Template.eu

You find our weather info also at:

European Weather Network

Weather Underground

Equipment we use:

Weather-station
Davis Vue

Weather-program
Meteohub

Weather-server
Raspberry PI 2 B+

Provider
1 and 1

Davis Vue

Meteohub

Raspberry PI 2 B+

1 and 1